createdAt,value
2019-02-25T00:02:27.843Z,25.93
2019-02-25T00:04:54.076Z,26.53
2019-02-25T00:07:20.264Z,22.93
2019-02-25T00:09:46.717Z,24.50
2019-02-25T00:12:13.021Z,23.10
2019-02-25T00:14:39.255Z,25.17
2019-02-25T00:17:05.556Z,26.47
2019-02-25T00:19:31.720Z,25.67
2019-02-25T00:21:58.244Z,22.90
2019-02-25T00:24:24.551Z,26.50
2019-02-25T00:26:50.911Z,23.83
2019-02-25T00:29:17.136Z,23.73
2019-02-25T00:31:43.554Z,24.13
2019-02-25T00:34:09.957Z,25.37
2019-02-25T00:36:36.406Z,23.23
2019-02-25T00:39:04.475Z,22.47
2019-02-25T00:41:31.029Z,23.00
2019-02-25T00:43:57.375Z,23.50
2019-02-25T00:46:23.804Z,23.80
2019-02-25T00:48:50.332Z,26.83
2019-02-25T00:51:16.943Z,24.47
2019-02-25T00:53:45.716Z,23.53
2019-02-25T00:56:16.276Z,22.70
2019-02-25T00:58:42.805Z,23.70
2019-02-25T01:01:09.119Z,23.13
2019-02-25T01:03:35.632Z,24.10
2019-02-25T01:06:02.213Z,22.13
2019-02-25T01:08:28.949Z,21.40
2019-02-25T01:10:55.774Z,23.00
2019-02-25T01:13:22.123Z,23.63
2019-02-25T01:15:48.415Z,23.87
2019-02-25T01:18:14.775Z,22.57
2019-02-25T01:20:41.071Z,24.40
2019-02-25T01:23:07.281Z,23.60
2019-02-25T01:25:33.634Z,25.53
2019-02-25T01:27:59.775Z,24.80
2019-02-25T01:30:26.165Z,24.07
2019-02-25T01:32:52.431Z,22.90
2019-02-25T01:35:18.648Z,24.27
2019-02-25T01:37:44.873Z,23.30
2019-02-25T01:40:12.482Z,25.07
2019-02-25T01:42:38.953Z,22.40
2019-02-25T01:45:17.127Z,25.10
2019-02-25T01:47:43.390Z,22.53
2019-02-25T01:50:10.691Z,22.87
2019-02-25T01:52:37.113Z,24.70
2019-02-25T01:55:05.872Z,23.30
2019-02-25T01:57:32.102Z,22.57
2019-02-25T01:59:58.568Z,22.83
2019-02-25T02:02:25.209Z,23.13
2019-02-25T02:04:52.846Z,25.47
2019-02-25T02:07:19.253Z,24.20
2019-02-25T02:09:45.866Z,22.30
2019-02-25T02:12:12.111Z,25.83
2019-02-25T02:14:38.499Z,24.20
2019-02-25T02:17:04.731Z,24.87
2019-02-25T02:19:31.085Z,25.87
2019-02-25T02:21:57.274Z,26.57
2019-02-25T02:24:23.528Z,26.00
2019-02-25T02:26:49.845Z,24.80
2019-02-25T02:29:16.020Z,26.13
2019-02-25T02:31:42.204Z,25.03
2019-02-25T02:34:08.439Z,26.03
2019-02-25T02:36:34.685Z,26.63
2019-02-25T02:39:01.426Z,25.77
2019-02-25T02:41:27.856Z,25.63
2019-02-25T02:43:54.605Z,27.97
2019-02-25T02:46:46.340Z,28.60
2019-02-25T02:49:13.446Z,29.17
2019-02-25T02:51:39.933Z,28.90
2019-02-25T02:54:06.346Z,27.97
2019-02-25T02:56:32.662Z,29.20
2019-02-25T02:58:59.093Z,29.80
2019-02-25T03:01:25.347Z,30.53
2019-02-25T03:03:51.667Z,31.47
2019-02-25T03:06:18.060Z,28.80
2019-02-25T03:08:44.387Z,32.77
2019-02-25T03:11:10.541Z,33.47
2019-02-25T03:13:36.805Z,33.03
2019-02-25T03:16:03.153Z,34.60
2019-02-25T03:18:29.388Z,38.17
2019-02-25T03:20:55.726Z,34.87
2019-02-25T03:23:22.098Z,36.17
2019-02-25T03:25:48.661Z,34.87
2019-02-25T03:28:14.859Z,33.83
2019-02-25T03:30:41.125Z,34.50
2019-02-25T03:33:07.521Z,35.43
2019-02-25T03:35:33.979Z,35.47
2019-02-25T03:38:02.449Z,36.77
2019-02-25T03:40:28.867Z,37.57
2019-02-25T03:42:55.104Z,37.13
2019-02-25T03:45:21.869Z,36.90
2019-02-25T03:47:48.245Z,37.93
2019-02-25T03:50:15.037Z,36.03
2019-02-25T03:52:41.290Z,35.40
2019-02-25T03:55:13.316Z,39.00
2019-02-25T03:57:39.772Z,37.97
2019-02-25T04:00:09.923Z,38.27
2019-02-25T04:02:36.359Z,39.10
2019-02-25T04:05:04.597Z,37.10
2019-02-25T04:07:30.968Z,38.30
2019-02-25T04:09:57.432Z,38.07
2019-02-25T04:12:23.703Z,40.00
2019-02-25T04:14:49.971Z,38.93
2019-02-25T04:17:16.390Z,38.70
2019-02-25T04:19:42.785Z,38.77
2019-02-25T04:22:09.236Z,36.77
2019-02-25T04:24:35.717Z,37.77
2019-02-25T04:27:01.993Z,40.30
2019-02-25T04:29:28.289Z,38.73
2019-02-25T04:31:54.451Z,40.27
2019-02-25T04:34:20.755Z,42.90
2019-02-25T04:36:47.032Z,40.40
2019-02-25T04:39:13.372Z,49.67
2019-02-25T04:41:39.745Z,47.37
2019-02-25T04:44:05.914Z,39.43
2019-02-25T04:46:32.192Z,39.87
2019-02-25T04:48:58.353Z,40.47
2019-02-25T04:51:24.575Z,40.93
2019-02-25T04:53:50.807Z,39.80
2019-02-25T04:56:17.033Z,43.17
2019-02-25T04:58:43.436Z,42.57
2019-02-25T05:01:09.806Z,43.00
2019-02-25T05:03:36.539Z,42.77
2019-02-25T05:06:03.032Z,40.40
2019-02-25T05:08:29.352Z,41.00
2019-02-25T05:10:55.919Z,46.30
2019-02-25T05:13:22.278Z,41.40
2019-02-25T05:15:48.711Z,45.67
2019-02-25T05:18:14.900Z,43.63
2019-02-25T05:20:41.204Z,46.27
2019-02-25T05:23:08.568Z,43.30
2019-02-25T05:25:35.280Z,43.17
2019-02-25T05:28:01.614Z,43.00
2019-02-25T05:30:28.238Z,43.10
2019-02-25T05:32:54.418Z,41.90
2019-02-25T05:35:20.714Z,44.20
2019-02-25T05:37:47.179Z,46.77
2019-02-25T05:40:20.129Z,45.40
2019-02-25T05:42:46.519Z,46.80
2019-02-25T05:45:14.014Z,45.37
2019-02-25T05:47:40.943Z,47.20
2019-02-25T05:50:10.356Z,46.73
2019-02-25T05:52:36.781Z,47.10
2019-02-25T05:55:06.491Z,44.70
2019-02-25T05:57:32.927Z,45.50
2019-02-25T05:59:59.156Z,49.20
2019-02-25T06:02:25.515Z,51.37
2019-02-25T06:04:51.826Z,48.73
2019-02-25T06:07:18.235Z,46.13
2019-02-25T06:09:44.668Z,48.10
2019-02-25T06:12:11.145Z,47.63
2019-02-25T06:14:37.549Z,46.80
2019-02-25T06:17:04.194Z,44.63
2019-02-25T06:19:30.787Z,45.07
2019-02-25T06:21:57.387Z,49.67
2019-02-25T06:24:23.711Z,51.07
2019-02-25T06:26:50.026Z,47.20
2019-02-25T06:29:18.100Z,48.00
2019-02-25T06:31:45.055Z,48.40
2019-02-25T06:34:11.235Z,50.67
2019-02-25T06:36:41.464Z,49.77
2019-02-25T06:39:07.843Z,51.83
2019-02-25T06:41:40.529Z,50.30
2019-02-25T06:44:06.841Z,48.47
2019-02-25T06:46:33.046Z,50.63
2019-02-25T06:48:59.317Z,51.07
2019-02-25T06:51:25.901Z,48.80
2019-02-25T06:57:15.451Z,50.90
2019-02-25T06:59:41.864Z,50.93
2019-02-25T07:02:08.146Z,50.17
2019-02-25T07:04:36.543Z,51.23
2019-02-25T07:07:07.695Z,51.63
2019-02-25T07:09:35.897Z,49.30
2019-02-25T07:12:11.132Z,52.17
2019-02-25T07:14:47.373Z,51.23
2019-02-25T07:17:22.726Z,54.53
2019-02-25T07:19:51.294Z,49.10
2019-02-25T07:22:22.262Z,52.40
2019-02-25T07:24:53.451Z,51.40
2019-02-25T07:27:25.035Z,50.67
2019-02-25T07:29:56.139Z,49.83
2019-02-25T07:32:24.616Z,50.97
2019-02-25T07:35:01.887Z,48.93
2019-02-25T07:37:30.284Z,49.37
2019-02-25T07:39:59.844Z,48.93
2019-02-25T07:42:47.814Z,54.67
2019-02-25T07:45:19.646Z,50.73
2019-02-25T07:47:50.586Z,50.27
2019-02-25T07:50:18.848Z,50.00
2019-02-25T07:52:47.119Z,55.80
2019-02-25T07:55:25.065Z,50.37
2019-02-25T07:58:10.262Z,51.20
2019-02-25T08:00:44.760Z,53.70
2019-02-25T08:03:29.908Z,48.83
2019-02-25T08:06:15.016Z,51.17
2019-02-25T08:08:56.208Z,50.23
2019-02-25T08:11:41.336Z,51.17
2019-02-25T08:14:25.061Z,49.80
2019-02-25T08:16:53.403Z,48.33
2019-02-25T08:19:21.771Z,49.40
2019-02-25T08:22:07.083Z,51.03
2019-02-25T08:24:50.615Z,49.13
2019-02-25T08:27:24.906Z,49.20
2019-02-25T08:29:53.525Z,44.97
2019-02-25T08:32:21.758Z,47.87
2019-02-25T08:34:50.759Z,48.80
2019-02-25T08:37:34.807Z,50.03
2019-02-25T08:40:33.863Z,44.30
2019-02-25T08:43:04.844Z,45.50
2019-02-25T08:45:41.995Z,41.67
2019-02-25T08:48:15.976Z,45.30
2019-02-25T08:50:42.574Z,41.77
2019-02-25T08:53:09.471Z,38.33
2019-02-25T08:55:36.105Z,42.23
2019-02-25T08:58:02.691Z,39.43
2019-02-25T09:00:29.227Z,38.80
2019-02-25T09:02:55.654Z,41.63
2019-02-25T09:05:22.079Z,37.37
2019-02-25T09:07:48.320Z,39.40
2019-02-25T09:10:14.810Z,36.07
2019-02-25T09:12:41.265Z,35.30
2019-02-25T09:15:12.740Z,37.57
2019-02-25T09:17:41.644Z,37.20
2019-02-25T09:20:08.236Z,37.10
2019-02-25T09:22:34.544Z,34.60
2019-02-25T09:25:00.967Z,33.60
2019-02-25T09:27:27.268Z,36.03
2019-02-25T09:29:53.603Z,33.00
2019-02-25T09:32:19.957Z,35.27
2019-02-25T09:34:47.070Z,33.73
2019-02-25T09:37:13.565Z,34.83
2019-02-25T09:39:39.999Z,32.93
2019-02-25T09:42:06.400Z,34.07
2019-02-25T09:44:32.835Z,33.73
2019-02-25T09:46:59.306Z,31.70
2019-02-25T09:49:31.956Z,30.30
2019-02-25T09:51:58.567Z,29.23
2019-02-25T09:54:25.127Z,29.20
2019-02-25T09:56:51.518Z,28.63
2019-02-25T09:59:18.123Z,28.60
2019-02-25T10:01:44.833Z,28.23
2019-02-25T10:04:11.324Z,27.07
2019-02-25T10:06:37.942Z,27.53
2019-02-25T10:09:05.506Z,28.70
2019-02-25T10:11:31.936Z,24.37
2019-02-25T10:13:58.509Z,25.23
2019-02-25T10:16:24.814Z,24.67
2019-02-25T10:18:51.135Z,24.63
2019-02-25T10:21:17.618Z,24.57
2019-02-25T10:23:43.976Z,23.90
2019-02-25T10:26:10.326Z,23.10
2019-02-25T10:28:36.691Z,23.60
2019-02-25T10:31:03.169Z,21.20
2019-02-25T10:33:38.676Z,18.53
2019-02-25T10:36:05.525Z,17.53
2019-02-25T10:38:32.091Z,17.83
2019-02-25T10:40:59.390Z,15.60
2019-02-25T10:43:27.722Z,18.40
2019-02-25T10:45:54.333Z,20.13
2019-02-25T10:48:21.697Z,21.10
2019-02-25T10:50:55.742Z,21.80
2019-02-25T10:53:18.350Z,20.63
2019-02-25T10:55:53.075Z,22.47
2019-02-25T10:58:19.796Z,24.57
2019-02-25T11:00:46.138Z,20.07
2019-02-25T11:03:13.476Z,18.80
2019-02-25T11:05:41.387Z,20.57
2019-02-25T11:08:11.531Z,18.60
2019-02-25T11:10:40.249Z,16.43
2019-02-25T11:13:06.923Z,17.03
2019-02-25T11:15:34.996Z,16.70
2019-02-25T11:18:01.924Z,15.97
2019-02-25T11:20:29.696Z,14.87
2019-02-25T11:22:57.663Z,17.70
2019-02-25T11:25:25.802Z,18.87
2019-02-25T11:27:52.422Z,19.27
2019-02-25T11:30:21.133Z,17.73
2019-02-25T11:32:49.123Z,17.80
2019-02-25T11:35:16.595Z,18.00
2019-02-25T11:37:43.176Z,18.23
2019-02-25T11:40:14.456Z,18.43
2019-02-25T11:42:40.914Z,18.20
2019-02-25T11:45:15.516Z,19.07
2019-02-25T11:47:42.463Z,21.33
2019-02-25T11:50:16.703Z,20.90
2019-02-25T11:52:43.338Z,19.10
2019-02-25T11:55:12.640Z,19.20
2019-02-25T11:57:39.486Z,18.60
2019-02-25T12:00:21.232Z,19.63
2019-02-25T12:02:47.553Z,17.80
2019-02-25T12:05:15.981Z,16.90
2019-02-25T12:07:42.702Z,14.60
2019-02-25T12:10:11.202Z,16.70
2019-02-25T12:12:37.748Z,16.30
2019-02-25T12:15:10.188Z,17.07
2019-02-25T12:17:37.013Z,12.10
2019-02-25T12:20:06.106Z,12.63
2019-02-25T12:22:32.574Z,14.50
2019-02-25T12:24:59.034Z,14.87
2019-02-25T12:27:25.371Z,15.57
2019-02-25T12:29:52.099Z,17.07
2019-02-25T12:32:18.547Z,15.97
2019-02-25T12:34:45.024Z,15.07
2019-02-25T12:37:11.678Z,15.57
2019-02-25T12:39:38.296Z,14.37
2019-02-25T12:42:04.798Z,16.83
2019-02-25T12:44:31.268Z,13.60
2019-02-25T12:46:57.898Z,14.97
2019-02-25T12:49:24.718Z,15.90
2019-02-25T12:51:51.480Z,14.97
2019-02-25T12:54:18.123Z,15.13
2019-02-25T12:56:44.945Z,14.00
2019-02-25T12:59:11.752Z,15.70
2019-02-25T13:01:38.227Z,16.33
2019-02-25T13:04:04.721Z,14.90
2019-02-25T13:06:31.265Z,15.73
2019-02-25T13:08:57.857Z,14.70
2019-02-25T13:11:24.580Z,14.33
2019-02-25T13:13:51.630Z,12.40
2019-02-25T13:16:18.110Z,14.90
2019-02-25T13:18:44.507Z,13.50
2019-02-25T13:21:11.236Z,14.20
2019-02-25T13:23:37.616Z,16.20
2019-02-25T13:26:07.418Z,18.40
2019-02-25T13:28:33.554Z,18.53
2019-02-25T13:31:01.031Z,20.03
2019-02-25T13:33:28.632Z,20.47
2019-02-25T13:35:57.111Z,20.67
2019-02-25T13:38:23.974Z,20.40
2019-02-25T13:40:50.468Z,16.50
2019-02-25T13:43:17.045Z,17.93
2019-02-25T13:45:43.502Z,18.00
2019-02-25T13:48:09.991Z,18.37
2019-02-25T13:50:36.413Z,16.90
2019-02-25T13:53:02.971Z,17.30
2019-02-25T13:55:29.318Z,18.50
2019-02-25T13:57:57.615Z,20.23
2019-02-25T14:00:27.599Z,18.90
2019-02-25T14:02:54.743Z,17.70
2019-02-25T14:05:21.837Z,15.10
2019-02-25T14:07:48.331Z,18.20
2019-02-25T14:10:18.638Z,22.90
2019-02-25T14:12:46.027Z,25.67
2019-02-25T14:15:21.035Z,27.63
2019-02-25T14:17:48.059Z,26.70
2019-02-25T14:20:16.830Z,28.97
2019-02-25T14:22:43.503Z,32.00
2019-02-25T14:25:13.076Z,32.57
2019-02-25T14:27:39.496Z,32.83
2019-02-25T14:30:13.052Z,34.80
2019-02-25T14:32:39.752Z,41.60
2019-02-25T14:35:07.878Z,55.83
2019-02-25T14:37:34.773Z,62.97
2019-02-25T14:40:04.106Z,120.73
2019-02-25T14:42:31.042Z,83.77
2019-02-25T14:44:58.593Z,63.50
2019-02-25T14:47:31.224Z,55.87
2019-02-25T14:49:54.740Z,57.10
2019-02-25T14:52:21.956Z,55.97
2019-02-25T14:54:49.687Z,53.80
2019-02-25T14:57:16.593Z,61.83
2019-02-25T14:59:43.208Z,56.93
2019-02-25T15:02:11.117Z,52.77
2019-02-25T15:04:39.533Z,50.60
2019-02-25T15:07:06.966Z,51.33
2019-02-25T15:09:36.975Z,52.57
2019-02-25T15:12:04.225Z,50.17
2019-02-25T15:14:32.623Z,51.80
2019-02-25T15:16:59.103Z,52.87
2019-02-25T15:19:27.879Z,51.53
2019-02-25T15:21:55.954Z,49.60
2019-02-25T15:24:22.699Z,54.60
2019-02-25T15:26:51.077Z,50.63
2019-02-25T15:29:17.387Z,58.03
2019-02-25T15:31:44.396Z,61.27
2019-02-25T15:34:13.039Z,60.83
2019-02-25T15:36:40.481Z,66.80
2019-02-25T15:39:10.898Z,77.30
2019-02-25T15:41:44.121Z,56.70
2019-02-25T15:44:09.428Z,66.47
2019-02-25T15:46:37.293Z,68.53
2019-02-25T15:49:04.198Z,60.30
2019-02-25T15:51:34.380Z,64.13
2019-02-25T15:53:59.844Z,69.17
2019-02-25T15:56:26.682Z,61.10
2019-02-25T15:58:53.121Z,57.70
2019-02-25T16:01:19.723Z,60.03
2019-02-25T16:03:46.310Z,58.90
2019-02-25T16:06:13.127Z,61.97
2019-02-25T16:08:39.786Z,63.47
2019-02-25T16:11:06.543Z,60.20
2019-02-25T16:13:33.242Z,66.13
2019-02-25T16:15:59.783Z,60.93
2019-02-25T16:18:27.843Z,59.33
2019-02-25T16:20:54.465Z,59.77
2019-02-25T16:23:21.344Z,58.80
2019-02-25T16:25:48.810Z,64.73
2019-02-25T16:28:17.561Z,60.47
2019-02-25T16:30:44.646Z,63.20
2019-02-25T16:33:14.337Z,63.70
2019-02-25T16:35:43.075Z,64.50
2019-02-25T16:38:09.519Z,59.87
2019-02-25T16:40:37.783Z,59.77
2019-02-25T16:43:05.253Z,61.93
2019-02-25T16:45:34.965Z,65.17
2019-02-25T16:48:00.656Z,57.77
2019-02-25T16:50:27.069Z,60.17
2019-02-25T16:52:53.478Z,62.23
2019-02-25T16:55:25.058Z,60.27
2019-02-25T16:57:51.704Z,57.77
2019-02-25T17:00:25.282Z,57.60
2019-02-25T17:02:52.627Z,59.70
2019-02-25T17:05:19.287Z,55.43
2019-02-25T17:07:46.507Z,53.80
2019-02-25T17:10:16.447Z,56.77
2019-02-25T17:12:43.781Z,54.40
2019-02-25T17:15:13.387Z,55.43
2019-02-25T17:17:39.805Z,53.60
2019-02-25T17:20:12.311Z,55.43
2019-02-25T17:22:38.201Z,54.93
2019-02-25T17:25:09.773Z,52.83
2019-02-25T17:27:36.638Z,56.20
2019-02-25T17:30:07.243Z,53.87
2019-02-25T17:32:33.904Z,51.30
2019-02-25T17:35:02.675Z,56.70
2019-02-25T17:37:29.732Z,53.17
2019-02-25T17:39:59.496Z,49.73
2019-02-25T17:42:26.452Z,57.10
2019-02-25T17:44:55.594Z,55.60
2019-02-25T17:47:24.302Z,57.77
2019-02-25T17:49:50.830Z,55.73
2019-02-25T17:52:18.590Z,55.30
2019-02-25T17:54:46.634Z,53.50
2019-02-25T17:57:14.235Z,57.30
2019-02-25T17:59:40.890Z,53.73
2019-02-25T18:02:08.409Z,50.47
2019-02-25T18:04:36.930Z,49.43
2019-02-25T18:07:03.793Z,51.47
2019-02-25T18:09:30.447Z,49.90
2019-02-25T18:11:57.099Z,50.30
2019-02-25T18:14:24.177Z,51.53
2019-02-25T18:16:51.419Z,49.13
2019-02-25T18:19:20.219Z,49.27
2019-02-25T18:21:46.564Z,51.70
2019-02-25T18:24:13.176Z,51.77
2019-02-25T18:26:39.999Z,49.40
2019-02-25T18:29:07.479Z,51.97
2019-02-25T18:31:34.703Z,50.37
2019-02-25T18:37:13.487Z,52.03
2019-02-25T18:39:43.130Z,51.63
2019-02-25T18:42:11.238Z,52.40
2019-02-25T18:44:37.622Z,52.10
2019-02-25T18:47:04.194Z,52.80
2019-02-25T18:49:32.534Z,52.47
2019-02-25T18:51:59.542Z,50.53
2019-02-25T18:54:26.425Z,50.07
2019-02-25T18:56:53.123Z,50.70
2019-02-25T18:59:20.338Z,50.10
2019-02-25T19:01:48.125Z,50.43
2019-02-25T19:04:17.131Z,54.17
2019-02-25T19:06:45.736Z,49.30
2019-02-25T19:09:20.623Z,53.80
2019-02-25T19:11:46.966Z,51.77
2019-02-25T19:14:15.352Z,53.17
2019-02-25T19:16:44.076Z,54.80
2019-02-25T19:19:14.324Z,52.47
2019-02-25T19:21:41.329Z,54.77
2019-02-25T19:24:09.928Z,56.10
2019-02-25T19:26:38.082Z,53.73
2019-02-25T19:29:05.070Z,54.57
2019-02-25T19:31:31.531Z,55.30
2019-02-25T19:37:37.543Z,54.43
2019-02-25T19:40:11.144Z,56.70
2019-02-25T19:45:59.288Z,56.53
2019-02-25T19:48:28.372Z,56.80
2019-02-25T19:50:54.561Z,57.00
2019-02-25T19:53:22.359Z,55.33
2019-02-25T19:55:51.108Z,57.27
2019-02-25T19:58:17.081Z,56.90
2019-02-25T20:00:44.545Z,57.07
2019-02-25T20:03:10.927Z,57.53
2019-02-25T20:05:41.105Z,58.67
2019-02-25T20:08:05.855Z,60.37
2019-02-25T20:10:33.052Z,59.00
2019-02-25T20:13:00.009Z,62.20
2019-02-25T20:15:26.647Z,59.20
2019-02-25T20:17:55.072Z,59.13
2019-02-25T20:20:21.886Z,60.57
2019-02-25T20:22:48.189Z,58.77
2019-02-25T20:25:16.791Z,57.63
2019-02-25T20:27:44.716Z,59.30
2019-02-25T20:33:36.818Z,72.90
2019-02-25T20:36:03.479Z,78.60
2019-02-25T20:38:32.610Z,86.03
2019-02-25T20:41:00.116Z,67.43
2019-02-25T20:43:28.270Z,74.17
2019-02-25T20:45:56.890Z,63.83
2019-02-25T20:51:36.225Z,58.93
2019-02-25T20:54:03.450Z,56.30
2019-02-25T20:56:31.110Z,59.00
2019-02-25T20:58:58.960Z,57.50
2019-02-25T21:01:27.425Z,58.77
2019-02-25T21:03:56.847Z,58.57
2019-02-25T21:06:23.684Z,58.80
2019-02-25T21:08:50.496Z,61.47
2019-02-25T21:11:16.833Z,55.03
2019-02-25T21:13:43.276Z,57.30
2019-02-25T21:16:10.492Z,60.90
2019-02-25T21:18:37.329Z,55.17
2019-02-25T21:21:05.616Z,54.37
2019-02-25T21:23:32.313Z,56.37
2019-02-25T21:25:59.909Z,58.03
2019-02-25T21:28:29.024Z,53.53
2019-02-25T21:30:55.118Z,56.30
2019-02-25T21:33:23.680Z,55.73
2019-02-25T21:35:50.009Z,53.20
2019-02-25T21:41:27.543Z,52.33
2019-02-25T21:43:56.367Z,53.70
2019-02-25T21:49:35.974Z,51.80
2019-02-25T21:52:04.393Z,50.40
2019-02-25T21:54:30.558Z,51.23
2019-02-25T21:56:58.580Z,50.60
2019-02-25T21:59:25.369Z,53.30
2019-02-25T22:01:52.951Z,51.20
2019-02-25T22:04:20.819Z,51.73
2019-02-25T22:06:51.009Z,49.50
2019-02-25T22:09:19.226Z,51.67
2019-02-25T22:11:45.669Z,52.40
2019-02-25T22:14:16.392Z,52.40
2019-02-25T22:16:44.284Z,53.40
2019-02-25T22:19:12.156Z,52.43
2019-02-25T22:21:39.176Z,52.70
2019-02-25T22:24:07.430Z,50.50
2019-02-25T22:26:35.618Z,50.77
2019-02-25T22:29:02.498Z,50.60
2019-02-25T22:31:28.859Z,47.90
2019-02-25T22:33:55.153Z,48.50
2019-02-25T22:36:21.636Z,48.40
2019-02-25T22:38:48.016Z,50.73
2019-02-25T22:41:16.238Z,52.13
2019-02-25T22:43:44.311Z,49.80
2019-02-25T22:46:11.743Z,56.10
2019-02-25T22:48:42.005Z,53.50
2019-02-25T22:51:07.019Z,56.87
2019-02-25T22:53:33.503Z,46.80
2019-02-25T22:55:59.815Z,49.90
2019-02-25T22:58:27.863Z,49.17
2019-02-25T23:00:58.920Z,45.30
2019-02-25T23:03:27.511Z,43.53
2019-02-25T23:05:55.208Z,46.60
2019-02-25T23:08:23.435Z,44.13
2019-02-25T23:10:51.804Z,41.50
2019-02-25T23:13:20.007Z,40.67
2019-02-25T23:15:47.207Z,40.70
2019-02-25T23:18:16.734Z,38.97
2019-02-25T23:20:43.178Z,42.93
2019-02-25T23:23:09.439Z,42.53
2019-02-25T23:25:35.854Z,39.70
2019-02-25T23:28:02.319Z,38.93
2019-02-25T23:30:28.890Z,37.07
2019-02-25T23:32:55.485Z,39.57
2019-02-25T23:35:23.131Z,38.53
2019-02-25T23:37:51.418Z,40.33
2019-02-25T23:40:18.130Z,36.83
2019-02-25T23:42:46.506Z,38.17
2019-02-25T23:45:15.193Z,38.70
2019-02-25T23:47:41.203Z,38.13
2019-02-25T23:50:13.673Z,36.17
2019-02-25T23:52:39.809Z,39.47
2019-02-25T23:55:14.277Z,38.60
2019-02-25T23:57:38.927Z,38.73
